Terminal Aerodrome Forecast
Issued by NWS

Home | Current Version | Previous Version | Text Only | Print | Product List | Glossary On
Versions: 1 2 3 4 5 6 7 8 9 10 11 12 13
470
FTUS45 KTFX 110132 AAA
TAFHVR
TAF AMD
KHVR 110132Z 1102/1124 09011KT P6SM SCT080 BKN140
     FM110400 10010KT P6SM VCSH SCT025 BKN040
     FM111000 23011KT P6SM SCT040 BKN070
     FM111800 33011KT P6SM SCT020 BKN035=

USA.gov is the U.S. government's official web portal to all federal, state and local government web resources and services.